sensor_id;sensor_type;location;lat;lon;timestamp;pressure;altitude;pressure_sealevel;temperature;humidity
54910;BME280;63189;51.240;9.964;2023-05-29T00:00:05;98209.75;;;14.31;67.20
54910;BME280;63189;51.240;9.964;2023-05-29T00:02:33;98202.91;;;14.27;67.39
54910;BME280;63189;51.240;9.964;2023-05-29T00:04:58;98203.97;;;14.23;67.75
54910;BME280;63189;51.240;9.964;2023-05-29T00:07:23;98207.63;;;14.19;68.01
54910;BME280;63189;51.240;9.964;2023-05-29T00:09:50;98207.75;;;14.15;68.13
54910;BME280;63189;51.240;9.964;2023-05-29T00:12:15;98208.00;;;14.09;68.41
54910;BME280;63189;51.240;9.964;2023-05-29T00:14:40;98204.69;;;14.04;69.42
54910;BME280;63189;51.240;9.964;2023-05-29T00:17:06;98199.59;;;14.01;69.22
54910;BME280;63189;51.240;9.964;2023-05-29T00:19:31;98208.50;;;13.97;69.79
54910;BME280;63189;51.240;9.964;2023-05-29T00:21:57;98207.81;;;13.92;69.58
54910;BME280;63189;51.240;9.964;2023-05-29T00:24:22;98210.44;;;13.92;69.81
54910;BME280;63189;51.240;9.964;2023-05-29T00:26:47;98213.13;;;13.91;70.29
54910;BME280;63189;51.240;9.964;2023-05-29T00:29:13;98214.19;;;13.86;70.20
54910;BME280;63189;51.240;9.964;2023-05-29T00:31:39;98209.09;;;13.82;70.65
54910;BME280;63189;51.240;9.964;2023-05-29T00:34:04;98199.75;;;13.75;71.41
54910;BME280;63189;51.240;9.964;2023-05-29T00:36:29;98202.63;;;13.69;71.43
54910;BME280;63189;51.240;9.964;2023-05-29T00:38:56;98201.03;;;13.65;71.88
54910;BME280;63189;51.240;9.964;2023-05-29T00:41:22;98203.00;;;13.60;72.08
54910;BME280;63189;51.240;9.964;2023-05-29T00:43:47;98213.47;;;13.60;71.55
54910;BME280;63189;51.240;9.964;2023-05-29T00:46:14;98204.97;;;13.53;71.69
54910;BME280;63189;51.240;9.964;2023-05-29T00:48:43;98206.75;;;13.52;71.65
54910;BME280;63189;51.240;9.964;2023-05-29T00:51:10;98215.53;;;13.51;71.59
54910;BME280;63189;51.240;9.964;2023-05-29T00:53:37;98213.94;;;13.47;72.16
54910;BME280;63189;51.240;9.964;2023-05-29T00:56:03;98216.00;;;13.39;72.81
54910;BME280;63189;51.240;9.964;2023-05-29T00:58:29;98214.44;;;13.34;73.29
54910;BME280;63189;51.240;9.964;2023-05-29T01:00:55;98218.16;;;13.28;73.21
54910;BME280;63189;51.240;9.964;2023-05-29T01:03:20;98211.44;;;13.21;73.36
54910;BME280;63189;51.240;9.964;2023-05-29T01:05:48;98220.28;;;13.17;73.56
54910;BME280;63189;51.240;9.964;2023-05-29T01:08:13;98215.31;;;13.09;74.39
54910;BME280;63189;51.240;9.964;2023-05-29T01:10:39;98211.25;;;13.00;74.84
54910;BME280;63189;51.240;9.964;2023-05-29T01:13:19;98210.81;;;12.89;75.79
54910;BME280;63189;51.240;9.964;2023-05-29T01:15:51;98226.63;;;12.86;75.18
54910;BME280;63189;51.240;9.964;2023-05-29T01:23:53;98229.81;;;12.69;75.95
54910;BME280;63189;51.240;9.964;2023-05-29T01:26:44;98225.53;;;12.67;77.17
54910;BME280;63189;51.240;9.964;2023-05-29T01:29:13;98229.28;;;12.60;76.37
54910;BME280;63189;51.240;9.964;2023-05-29T01:31:39;98235.41;;;12.59;77.09
54910;BME280;63189;51.240;9.964;2023-05-29T01:34:04;98238.09;;;12.57;77.49
54910;BME280;63189;51.240;9.964;2023-05-29T01:36:30;98247.75;;;12.55;77.92
54910;BME280;63189;51.240;9.964;2023-05-29T01:38:58;98247.00;;;12.52;77.61
54910;BME280;63189;51.240;9.964;2023-05-29T01:41:25;98254.09;;;12.48;77.98
54910;BME280;63189;51.240;9.964;2023-05-29T01:43:52;98246.28;;;12.47;78.68
54910;BME280;63189;51.240;9.964;2023-05-29T01:46:18;98253.44;;;12.41;79.07
54910;BME280;63189;51.240;9.964;2023-05-29T01:48:45;98252.69;;;12.38;78.94
54910;BME280;63189;51.240;9.964;2023-05-29T01:51:12;98245.84;;;12.34;79.10
54910;BME280;63189;51.240;9.964;2023-05-29T01:53:38;98242.28;;;12.36;78.98
54910;BME280;63189;51.240;9.964;2023-05-29T01:56:05;98243.13;;;12.37;78.94
54910;BME280;63189;51.240;9.964;2023-05-29T01:58:31;98243.97;;;12.37;78.97
54910;BME280;63189;51.240;9.964;2023-05-29T02:00:58;98249.97;;;12.41;78.80
54910;BME280;63189;51.240;9.964;2023-05-29T02:03:23;98250.78;;;12.43;79.14
54910;BME280;63189;51.240;9.964;2023-05-29T02:05:49;98243.84;;;12.42;78.97
54910;BME280;63189;51.240;9.964;2023-05-29T02:08:15;98252.44;;;12.46;79.25
54910;BME280;63189;51.240;9.964;2023-05-29T02:10:40;98251.63;;;12.43;79.53
54910;BME280;63189;51.240;9.964;2023-05-29T02:13:05;98239.53;;;12.41;79.45
54910;BME280;63189;51.240;9.964;2023-05-29T02:15:31;98245.69;;;12.38;79.35
54910;BME280;63189;51.240;9.964;2023-05-29T02:17:56;98254.44;;;12.37;79.35
54910;BME280;63189;51.240;9.964;2023-05-29T02:20:23;98249.44;;;12.31;79.73
54910;BME280;63189;51.240;9.964;2023-05-29T02:22:48;98258.97;;;12.32;79.58
54910;BME280;63189;51.240;9.964;2023-05-29T02:25:13;98258.19;;;12.30;79.66
54910;BME280;63189;51.240;9.964;2023-05-29T02:27:39;98266.03;;;12.30;79.61
54910;BME280;63189;51.240;9.964;2023-05-29T02:30:05;98254.72;;;12.28;80.05
54910;BME280;63189;51.240;9.964;2023-05-29T02:32:31;98256.56;;;12.26;80.17
54910;BME280;63189;51.240;9.964;2023-05-29T02:34:57;98263.53;;;12.26;79.98
54910;BME280;63189;51.240;9.964;2023-05-29T02:37:22;98267.91;;;12.25;80.51
54910;BME280;63189;51.240;9.964;2023-05-29T02:39:50;98267.16;;;12.22;80.81
54910;BME280;63189;51.240;9.964;2023-05-29T02:42:16;98276.78;;;12.21;80.97
54910;BME280;63189;51.240;9.964;2023-05-29T02:44:41;98277.75;;;12.17;81.24
54910;BME280;63189;51.240;9.964;2023-05-29T02:47:06;98288.31;;;12.14;81.16
54910;BME280;63189;51.240;9.964;2023-05-29T02:49:32;98277.88;;;12.14;81.10
54910;BME280;63189;51.240;9.964;2023-05-29T02:51:59;98283.19;;;12.11;81.51
54910;BME280;63189;51.240;9.964;2023-05-29T02:54:24;98286.78;;;12.07;81.82
54910;BME280;63189;51.240;9.964;2023-05-29T02:56:51;98284.28;;;12.04;81.93
54910;BME280;63189;51.240;9.964;2023-05-29T02:59:16;98277.44;;;12.00;82.07
54910;BME280;63189;51.240;9.964;2023-05-29T03:01:42;98297.53;;;11.98;81.99
54910;BME280;63189;51.240;9.964;2023-05-29T03:04:08;98290.59;;;11.97;81.93
54910;BME280;63189;51.240;9.964;2023-05-29T03:06:34;98295.13;;;11.92;81.92
54910;BME280;63189;51.240;9.964;2023-05-29T03:09:01;98295.13;;;11.92;81.93
54910;BME280;63189;51.240;9.964;2023-05-29T03:11:27;98296.06;;;11.89;81.90
54910;BME280;63189;51.240;9.964;2023-05-29T03:13:54;98295.16;;;11.90;82.10
54910;BME280;63189;51.240;9.964;2023-05-29T03:16:20;98303.06;;;11.87;82.29
54910;BME280;63189;51.240;9.964;2023-05-29T03:18:46;98307.44;;;11.87;82.34
54910;BME280;63189;51.240;9.964;2023-05-29T03:21:11;98306.63;;;11.84;82.31
54910;BME280;63189;51.240;9.964;2023-05-29T03:23:36;98304.13;;;11.81;82.43
54910;BME280;63189;51.240;9.964;2023-05-29T03:26:02;98298.09;;;11.79;82.62
54910;BME280;63189;51.240;9.964;2023-05-29T03:28:28;98297.22;;;11.79;82.71
54910;BME280;63189;51.240;9.964;2023-05-29T03:30:53;98297.28;;;11.76;82.77
54910;BME280;63189;51.240;9.964;2023-05-29T03:33:19;98309.59;;;11.72;82.85
54910;BME280;63189;51.240;9.964;2023-05-29T03:35:44;98306.94;;;11.74;83.35
54910;BME280;63189;51.240;9.964;2023-05-29T03:38:09;98300.91;;;11.72;83.14
54910;BME280;63189;51.240;9.964;2023-05-29T03:40:35;98301.84;;;11.69;83.19
54910;BME280;63189;51.240;9.964;2023-05-29T03:43:00;98301.00;;;11.69;83.72
54910;BME280;63189;51.240;9.964;2023-05-29T03:45:25;98302.75;;;11.68;83.44
54910;BME280;63189;51.240;9.964;2023-05-29T03:47:51;98291.47;;;11.66;83.56
54910;BME280;63189;51.240;9.964;2023-05-29T03:50:16;98296.78;;;11.63;84.02
54910;BME280;63189;51.240;9.964;2023-05-29T03:52:42;98299.44;;;11.62;84.45
54910;BME280;63189;51.240;9.964;2023-05-29T03:55:09;98302.13;;;11.60;84.25
54910;BME280;63189;51.240;9.964;2023-05-29T03:57:39;98311.72;;;11.60;84.26
54910;BME280;63189;51.240;9.964;2023-05-29T04:00:09;98300.41;;;11.59;84.20
54910;BME280;63189;51.240;9.964;2023-05-29T04:02:36;98304.81;;;11.57;84.55
54910;BME280;63189;51.240;9.964;2023-05-29T04:05:02;98303.81;;;11.61;84.45
54910;BME280;63189;51.240;9.964;2023-05-29T04:07:28;98316.06;;;11.59;84.32
54910;BME280;63189;51.240;9.964;2023-05-29T04:09:53;98318.75;;;11.57;84.77
54910;BME280;63189;51.240;9.964;2023-05-29T04:12:19;98321.28;;;11.59;84.49
54910;BME280;63189;51.240;9.964;2023-05-29T04:14:44;98330.00;;;11.60;84.69
54910;BME280;63189;51.240;9.964;2023-05-29T04:17:09;98321.28;;;11.59;85.13
54910;BME280;63189;51.240;9.964;2023-05-29T04:19:35;98333.44;;;11.60;85.58
54910;BME280;63189;51.240;9.964;2023-05-29T04:22:00;98330.84;;;11.60;85.54
54910;BME280;63189;51.240;9.964;2023-05-29T04:24:25;98323.00;;;11.60;85.72
54910;BME280;63189;51.240;9.964;2023-05-29T04:26:51;98333.44;;;11.60;85.59
54910;BME280;63189;51.240;9.964;2023-05-29T04:29:17;98334.31;;;11.61;86.34
54910;BME280;63189;51.240;9.964;2023-05-29T04:31:43;98341.28;;;11.60;86.41
54910;BME280;63189;51.240;9.964;2023-05-29T04:34:08;98350.84;;;11.61;86.56
54910;BME280;63189;51.240;9.964;2023-05-29T04:36:34;98352.50;;;11.64;86.97
54910;BME280;63189;51.240;9.964;2023-05-29T04:39:04;98356.06;;;11.61;87.60
54910;BME280;63189;51.240;9.964;2023-05-29T04:41:29;98353.44;;;11.61;87.69
54910;BME280;63189;51.240;9.964;2023-05-29T04:43:57;98356.91;;;11.62;88.46
54910;BME280;63189;51.240;9.964;2023-05-29T04:46:24;98354.25;;;11.63;88.49
54910;BME280;63189;51.240;9.964;2023-05-29T04:48:50;98351.69;;;11.62;89.35
54910;BME280;63189;51.240;9.964;2023-05-29T04:51:18;98352.53;;;11.62;88.71
54910;BME280;63189;51.240;9.964;2023-05-29T04:53:45;98355.91;;;11.66;88.49
54910;BME280;63189;51.240;9.964;2023-05-29T04:56:12;98359.22;;;11.72;88.79
54910;BME280;63189;51.240;9.964;2023-05-29T04:58:37;98348.66;;;11.75;88.41
54910;BME280;63189;51.240;9.964;2023-05-29T05:01:02;98362.31;;;11.87;88.05
54910;BME280;63189;51.240;9.964;2023-05-29T05:03:30;98366.31;;;11.98;87.92
54910;BME280;63189;51.240;9.964;2023-05-29T05:05:56;98360.75;;;12.10;87.00
54910;BME280;63189;51.240;9.964;2023-05-29T05:08:22;98361.34;;;12.20;86.28
54910;BME280;63189;51.240;9.964;2023-05-29T05:10:48;98362.66;;;12.33;85.77
54910;BME280;63189;51.240;9.964;2023-05-29T05:13:13;98358.81;;;12.45;85.03
54910;BME280;63189;51.240;9.964;2023-05-29T05:15:38;98362.78;;;12.57;84.62
54910;BME280;63189;51.240;9.964;2023-05-29T05:18:03;98369.50;;;12.65;84.34
54910;BME280;63189;51.240;9.964;2023-05-29T05:20:29;98356.84;;;12.78;82.88
54910;BME280;63189;51.240;9.964;2023-05-29T05:22:54;98358.31;;;12.87;82.33
54910;BME280;63189;51.240;9.964;2023-05-29T05:25:21;98362.22;;;13.00;81.60
54910;BME280;63189;51.240;9.964;2023-05-29T05:27:46;98373.97;;;13.15;81.27
54910;BME280;63189;51.240;9.964;2023-05-29T05:30:12;98370.28;;;13.20;80.39
54910;BME280;63189;51.240;9.964;2023-05-29T05:32:38;98374.25;;;13.32;80.00
54910;BME280;63189;51.240;9.964;2023-05-29T05:35:04;98374.69;;;13.45;79.58
54910;BME280;63189;51.240;9.964;2023-05-29T05:37:29;98376.03;;;13.56;80.25
54910;BME280;63189;51.240;9.964;2023-05-29T05:39:55;98380.75;;;13.70;78.43
54910;BME280;63189;51.240;9.964;2023-05-29T05:42:23;98390.63;;;13.87;77.96
54910;BME280;63189;51.240;9.964;2023-05-29T05:44:48;98392.81;;;13.99;76.61
54910;BME280;63189;51.240;9.964;2023-05-29T05:47:13;98397.47;;;14.14;76.13
54910;BME280;63189;51.240;9.964;2023-05-29T05:49:39;98395.19;;;14.29;75.13
54910;BME280;63189;51.240;9.964;2023-05-29T05:52:04;98386.78;;;14.42;74.49
54910;BME280;63189;51.240;9.964;2023-05-29T05:54:30;98389.56;;;14.61;73.99
54910;BME280;63189;51.240;9.964;2023-05-29T05:56:55;98385.31;;;14.79;72.93
54910;BME280;63189;51.240;9.964;2023-05-29T05:59:20;98382.81;;;14.98;72.11
54910;BME280;63189;51.240;9.964;2023-05-29T06:01:46;98384.03;;;15.11;72.08
54910;BME280;63189;51.240;9.964;2023-05-29T06:04:12;98387.94;;;15.21;70.42
54910;BME280;63189;51.240;9.964;2023-05-29T06:06:38;98382.44;;;15.27;70.53
54910;BME280;63189;51.240;9.964;2023-05-29T06:09:03;98386.38;;;15.38;69.61
54910;BME280;63189;51.240;9.964;2023-05-29T06:11:29;98385.69;;;15.54;70.14
54910;BME280;63189;51.240;9.964;2023-05-29T06:13:55;98399.09;;;15.69;69.44
54910;BME280;63189;51.240;9.964;2023-05-29T06:16:20;98396.75;;;15.81;68.82
54910;BME280;63189;51.240;9.964;2023-05-29T06:18:49;98399.00;;;15.91;68.43
54910;BME280;63189;51.240;9.964;2023-05-29T06:21:14;98403.06;;;15.98;67.67
54910;BME280;63189;51.240;9.964;2023-05-29T06:23:39;98397.94;;;16.13;67.33
54910;BME280;63189;51.240;9.964;2023-05-29T06:26:06;98408.28;;;16.18;67.31
54910;BME280;63189;51.240;9.964;2023-05-29T06:28:32;98401.78;;;16.25;67.11
54910;BME280;63189;51.240;9.964;2023-05-29T06:30:57;98397.44;;;16.43;67.08
54910;BME280;63189;51.240;9.964;2023-05-29T06:33:23;98401.66;;;16.47;64.63
54910;BME280;63189;51.240;9.964;2023-05-29T06:35:49;98401.19;;;16.56;65.49
54910;BME280;63189;51.240;9.964;2023-05-29T06:38:14;98404.16;;;16.69;65.46
54910;BME280;63189;51.240;9.964;2023-05-29T06:40:40;98403.41;;;16.84;66.10
54910;BME280;63189;51.240;9.964;2023-05-29T06:43:05;98401.66;;;17.02;65.62
54910;BME280;63189;51.240;9.964;2023-05-29T06:45:31;98413.44;;;17.12;65.08
54910;BME280;63189;51.240;9.964;2023-05-29T06:47:56;98403.84;;;17.28;64.87
54910;BME280;63189;51.240;9.964;2023-05-29T06:50:22;98401.59;;;17.55;64.56
54910;BME280;63189;51.240;9.964;2023-05-29T06:52:47;98398.66;;;17.62;64.16
54910;BME280;63189;51.240;9.964;2023-05-29T06:55:12;98404.16;;;17.74;63.26
54910;BME280;63189;51.240;9.964;2023-05-29T06:57:38;98409.28;;;17.77;62.46
54910;BME280;63189;51.240;9.964;2023-05-29T07:00:05;98403.31;;;17.74;61.91
54910;BME280;63189;51.240;9.964;2023-05-29T07:02:31;98401.41;;;17.93;62.45
54910;BME280;63189;51.240;9.964;2023-05-29T07:04:57;98407.81;;;18.05;62.94
54910;BME280;63189;51.240;9.964;2023-05-29T07:07:22;98403.66;;;18.16;61.42
54910;BME280;63189;51.240;9.964;2023-05-29T07:09:47;98402.69;;;18.35;61.99
54910;BME280;63189;51.240;9.964;2023-05-29T07:12:13;98409.91;;;18.47;60.88
54910;BME280;63189;51.240;9.964;2023-05-29T07:14:39;98409.75;;;18.50;59.52
54910;BME280;63189;51.240;9.964;2023-05-29T07:17:05;98396.97;;;18.74;60.02
54910;BME280;63189;51.240;9.964;2023-05-29T07:19:30;98403.28;;;18.87;59.18
54910;BME280;63189;51.240;9.964;2023-05-29T07:21:57;98404.94;;;19.04;59.20
54910;BME280;63189;51.240;9.964;2023-05-29T07:24:23;98410.47;;;19.15;59.04
54910;BME280;63189;51.240;9.964;2023-05-29T07:26:48;98409.00;;;19.25;58.72
54910;BME280;63189;51.240;9.964;2023-05-29T07:29:13;98414.69;;;19.33;58.78
54910;BME280;63189;51.240;9.964;2023-05-29T07:31:40;98413.31;;;19.42;58.80
54910;BME280;63189;51.240;9.964;2023-05-29T07:34:05;98414.22;;;19.57;56.98
54910;BME280;63189;51.240;9.964;2023-05-29T07:36:31;98412.56;;;19.70;57.41
54910;BME280;63189;51.240;9.964;2023-05-29T07:38:57;98407.16;;;19.72;56.87
54910;BME280;63189;51.240;9.964;2023-05-29T07:41:23;98408.41;;;19.80;55.83
54910;BME280;63189;51.240;9.964;2023-05-29T07:43:49;98420.31;;;19.87;56.50
54910;BME280;63189;51.240;9.964;2023-05-29T07:46:17;98419.53;;;20.00;56.87
54910;BME280;63189;51.240;9.964;2023-05-29T07:48:42;98416.75;;;20.03;57.01
54910;BME280;63189;51.240;9.964;2023-05-29T07:51:10;98415.59;;;20.07;54.98
54910;BME280;63189;51.240;9.964;2023-05-29T07:53:35;98414.81;;;20.19;56.20
54910;BME280;63189;51.240;9.964;2023-05-29T07:56:01;98418.97;;;20.37;56.53
54910;BME280;63189;51.240;9.964;2023-05-29T07:58:26;98410.69;;;20.43;55.70
54910;BME280;63189;51.240;9.964;2023-05-29T08:00:52;98423.25;;;20.54;55.93
54910;BME280;63189;51.240;9.964;2023-05-29T08:03:18;98421.78;;;20.63;55.09
54910;BME280;63189;51.240;9.964;2023-05-29T08:05:43;98417.44;;;20.76;54.14
54910;BME280;63189;51.240;9.964;2023-05-29T08:08:09;98416.28;;;20.80;55.14
54910;BME280;63189;51.240;9.964;2023-05-29T08:10:37;98419.97;;;21.04;54.17
54910;BME280;63189;51.240;9.964;2023-05-29T08:13:02;98421.16;;;21.13;53.04
54910;BME280;63189;51.240;9.964;2023-05-29T08:15:28;98428.06;;;21.30;54.07
54910;BME280;63189;51.240;9.964;2023-05-29T08:17:53;98414.94;;;21.41;53.43
54910;BME280;63189;51.240;9.964;2023-05-29T08:20:18;98429.34;;;21.37;54.10
54910;BME280;63189;51.240;9.964;2023-05-29T08:22:44;98422.75;;;21.30;53.39
54910;BME280;63189;51.240;9.964;2023-05-29T08:25:10;98419.19;;;21.17;52.31
54910;BME280;63189;51.240;9.964;2023-05-29T08:27:35;98413.97;;;21.15;53.80
54910;BME280;63189;51.240;9.964;2023-05-29T08:30:01;98419.50;;;21.25;52.74
54910;BME280;63189;51.240;9.964;2023-05-29T08:32:27;98418.44;;;21.42;54.69
54910;BME280;63189;51.240;9.964;2023-05-29T08:34:52;98420.03;;;21.57;54.12
54910;BME280;63189;51.240;9.964;2023-05-29T08:37:19;98425.06;;;21.74;55.25
54910;BME280;63189;51.240;9.964;2023-05-29T08:39:44;98415.59;;;21.96;51.93
54910;BME280;63189;51.240;9.964;2023-05-29T08:42:13;98414.53;;;21.98;51.08
54910;BME280;63189;51.240;9.964;2023-05-29T08:44:46;98419.00;;;21.85;53.20
54910;BME280;63189;51.240;9.964;2023-05-29T08:47:13;98423.16;;;21.89;52.57
54910;BME280;63189;51.240;9.964;2023-05-29T08:49:44;98413.81;;;21.96;53.21
54910;BME280;63189;51.240;9.964;2023-05-29T08:52:19;98415.38;;;21.99;52.27
54910;BME280;63189;51.240;9.964;2023-05-29T08:54:45;98413.50;;;22.13;53.17
54910;BME280;63189;51.240;9.964;2023-05-29T08:57:11;98422.84;;;22.32;52.82
54910;BME280;63189;51.240;9.964;2023-05-29T08:59:40;98417.06;;;22.51;51.55
54910;BME280;63189;51.240;9.964;2023-05-29T09:02:06;98423.31;;;22.62;52.60
54910;BME280;63189;51.240;9.964;2023-05-29T09:04:32;98427.16;;;22.58;48.78
54910;BME280;63189;51.240;9.964;2023-05-29T09:06:58;98427.88;;;22.73;50.83
54910;BME280;63189;51.240;9.964;2023-05-29T09:09:24;98437.47;;;22.63;51.03
54910;BME280;63189;51.240;9.964;2023-05-29T09:11:52;98431.31;;;22.62;49.92
54910;BME280;63189;51.240;9.964;2023-05-29T09:17:02;98423.16;;;22.76;48.06
54910;BME280;63189;51.240;9.964;2023-05-29T09:19:28;98420.84;;;22.85;51.87
54910;BME280;63189;51.240;9.964;2023-05-29T09:22:03;98425.75;;;23.02;50.23
54910;BME280;63189;51.240;9.964;2023-05-29T09:24:30;98427.06;;;23.20;51.05
54910;BME280;63189;51.240;9.964;2023-05-29T09:26:59;98432.09;;;23.36;50.45
54910;BME280;63189;51.240;9.964;2023-05-29T09:29:25;98435.16;;;23.54;49.50
54910;BME280;63189;51.240;9.964;2023-05-29T09:31:50;98430.59;;;23.56;50.32
54910;BME280;63189;51.240;9.964;2023-05-29T09:34:16;98433.06;;;23.70;49.26
54910;BME280;63189;51.240;9.964;2023-05-29T09:36:41;98436.47;;;23.83;48.61
54910;BME280;63189;51.240;9.964;2023-05-29T09:39:07;98429.72;;;23.79;48.30
54910;BME280;63189;51.240;9.964;2023-05-29T09:41:42;98437.94;;;23.76;49.18
54910;BME280;63189;51.240;9.964;2023-05-29T09:44:07;98444.69;;;23.69;49.07
54910;BME280;63189;51.240;9.964;2023-05-29T09:46:35;98440.81;;;23.73;50.98
54910;BME280;63189;51.240;9.964;2023-05-29T09:49:01;98443.22;;;23.65;48.79
54910;BME280;63189;51.240;9.964;2023-05-29T09:51:28;98438.88;;;23.75;49.16
54910;BME280;63189;51.240;9.964;2023-05-29T09:53:54;98431.88;;;23.85;50.71
54910;BME280;63189;51.240;9.964;2023-05-29T09:56:23;98435.03;;;23.79;47.52
54910;BME280;63189;51.240;9.964;2023-05-29T09:58:51;98432.72;;;23.86;48.58
54910;BME280;63189;51.240;9.964;2023-05-29T10:01:17;98429.34;;;23.84;50.22
54910;BME280;63189;51.240;9.964;2023-05-29T10:03:43;98432.28;;;23.92;48.28
54910;BME280;63189;51.240;9.964;2023-05-29T10:06:11;98432.16;;;23.94;49.82
54910;BME280;63189;51.240;9.964;2023-05-29T10:08:44;98431.44;;;23.92;47.34
54910;BME280;63189;51.240;9.964;2023-05-29T10:11:13;98426.47;;;23.87;48.35
54910;BME280;63189;51.240;9.964;2023-05-29T10:13:42;98424.88;;;23.96;48.82
54910;BME280;63189;51.240;9.964;2023-05-29T10:16:13;98423.19;;;23.95;47.26
54910;BME280;63189;51.240;9.964;2023-05-29T10:18:42;98414.00;;;23.99;49.42
54910;BME280;63189;51.240;9.964;2023-05-29T10:21:11;98417.00;;;23.94;45.44
54910;BME280;63189;51.240;9.964;2023-05-29T10:23:40;98419.31;;;23.87;45.81
54910;BME280;63189;51.240;9.964;2023-05-29T10:26:14;98421.88;;;23.89;47.56
54910;BME280;63189;51.240;9.964;2023-05-29T10:28:44;98421.59;;;23.81;46.49
54910;BME280;63189;51.240;9.964;2023-05-29T10:31:20;98432.50;;;23.78;48.58
54910;BME280;63189;51.240;9.964;2023-05-29T10:33:58;98432.97;;;23.83;49.03
54910;BME280;63189;51.240;9.964;2023-05-29T10:36:31;98429.22;;;23.85;49.51
54910;BME280;63189;51.240;9.964;2023-05-29T10:38:59;98424.66;;;23.87;46.89
54910;BME280;63189;51.240;9.964;2023-05-29T10:43:58;98421.00;;;23.88;46.59
54910;BME280;63189;51.240;9.964;2023-05-29T10:49:15;98410.34;;;23.77;48.21
54910;BME280;63189;51.240;9.964;2023-05-29T10:51:41;98411.06;;;23.79;48.89
54910;BME280;63189;51.240;9.964;2023-05-29T10:54:07;98417.38;;;23.78;47.55
54910;BME280;63189;51.240;9.964;2023-05-29T10:56:32;98416.84;;;23.62;48.01
54910;BME280;63189;51.240;9.964;2023-05-29T10:58:58;98421.06;;;23.65;48.44
54910;BME280;63189;51.240;9.964;2023-05-29T11:01:28;98421.56;;;23.58;46.95
54910;BME280;63189;51.240;9.964;2023-05-29T11:06:39;98413.25;;;23.50;47.24
54910;BME280;63189;51.240;9.964;2023-05-29T11:12:24;98422.34;;;23.48;47.66
54910;BME280;63189;51.240;9.964;2023-05-29T11:15:11;98420.47;;;23.61;46.92
54910;BME280;63189;51.240;9.964;2023-05-29T11:20:09;98413.22;;;23.74;47.82
54910;BME280;63189;51.240;9.964;2023-05-29T11:25:21;98413.50;;;23.82;46.85
54910;BME280;63189;51.240;9.964;2023-05-29T11:27:47;98411.69;;;23.94;46.90
54910;BME280;63189;51.240;9.964;2023-05-29T11:30:12;98412.03;;;23.78;46.37
54910;BME280;63189;51.240;9.964;2023-05-29T11:32:39;98420.13;;;23.66;48.12
54910;BME280;63189;51.240;9.964;2023-05-29T11:35:09;98407.03;;;23.63;47.60
54910;BME280;63189;51.240;9.964;2023-05-29T11:37:35;98410.03;;;23.58;47.48
54910;BME280;63189;51.240;9.964;2023-05-29T11:40:04;98408.78;;;23.51;48.65
54910;BME280;63189;51.240;9.964;2023-05-29T11:42:31;98403.69;;;23.48;47.51
54910;BME280;63189;51.240;9.964;2023-05-29T11:45:10;98397.97;;;23.41;46.16
54910;BME280;63189;51.240;9.964;2023-05-29T11:47:57;98400.72;;;23.28;48.99
54910;BME280;63189;51.240;9.964;2023-05-29T11:50:25;98386.00;;;23.36;48.43
54910;BME280;63189;51.240;9.964;2023-05-29T11:52:52;98388.59;;;23.48;48.90
54910;BME280;63189;51.240;9.964;2023-05-29T11:55:21;98395.44;;;23.40;47.08
54910;BME280;63189;51.240;9.964;2023-05-29T11:57:48;98397.81;;;23.31;48.39
54910;BME280;63189;51.240;9.964;2023-05-29T12:00:15;98396.09;;;23.19;47.31
54910;BME280;63189;51.240;9.964;2023-05-29T12:02:41;98385.72;;;23.27;49.39
54910;BME280;63189;51.240;9.964;2023-05-29T12:05:13;98392.75;;;23.28;48.89
54910;BME280;63189;51.240;9.964;2023-05-29T12:07:53;98392.75;;;23.28;47.91
54910;BME280;63189;51.240;9.964;2023-05-29T12:10:20;98393.00;;;23.25;48.29
54910;BME280;63189;51.240;9.964;2023-05-29T12:12:51;98385.50;;;23.30;49.41
54910;BME280;63189;51.240;9.964;2023-05-29T12:15:18;98382.94;;;23.29;49.16
54910;BME280;63189;51.240;9.964;2023-05-29T12:17:45;98381.50;;;23.25;48.87
54910;BME280;63189;51.240;9.964;2023-05-29T12:20:12;98381.97;;;23.30;49.42
54910;BME280;63189;51.240;9.964;2023-05-29T12:22:39;98388.31;;;23.40;49.69
54910;BME280;63189;51.240;9.964;2023-05-29T12:25:15;98389.34;;;23.26;48.12
54910;BME280;63189;51.240;9.964;2023-05-29T12:27:43;98398.06;;;23.28;49.35
54910;BME280;63189;51.240;9.964;2023-05-29T12:30:10;98398.34;;;23.13;49.18
54910;BME280;63189;51.240;9.964;2023-05-29T12:32:39;98399.91;;;23.04;48.08
54910;BME280;63189;51.240;9.964;2023-05-29T12:35:17;98398.19;;;23.03;48.41
54910;BME280;63189;51.240;9.964;2023-05-29T12:40:20;98397.25;;;23.04;48.97
54910;BME280;63189;51.240;9.964;2023-05-29T12:42:47;98412.25;;;23.05;48.92
54910;BME280;63189;51.240;9.964;2023-05-29T12:45:13;98398.72;;;23.08;49.00
54910;BME280;63189;51.240;9.964;2023-05-29T12:47:44;98399.78;;;23.06;50.89
54910;BME280;63189;51.240;9.964;2023-05-29T12:50:20;98394.34;;;23.07;49.71
54910;BME280;63189;51.240;9.964;2023-05-29T12:53:02;98387.50;;;22.92;49.05
54910;BME280;63189;51.240;9.964;2023-05-29T12:55:36;98384.47;;;22.72;49.46
54910;BME280;63189;51.240;9.964;2023-05-29T12:58:04;98399.59;;;22.72;49.76
54910;BME280;63189;51.240;9.964;2023-05-29T13:00:30;98386.50;;;22.69;48.98
54910;BME280;63189;51.240;9.964;2023-05-29T13:03:02;98386.13;;;22.62;48.97
54910;BME280;63189;51.240;9.964;2023-05-29T13:05:28;98394.13;;;22.37;49.14
54910;BME280;63189;51.240;9.964;2023-05-29T13:07:54;98404.03;;;22.35;49.76
54910;BME280;63189;51.240;9.964;2023-05-29T13:10:20;98398.41;;;22.27;50.30
54910;BME280;63189;51.240;9.964;2023-05-29T13:12:53;98389.81;;;22.23;50.09
54910;BME280;63189;51.240;9.964;2023-05-29T13:15:21;98389.28;;;22.31;50.94
54910;BME280;63189;51.240;9.964;2023-05-29T13:17:46;98394.38;;;22.34;50.06
54910;BME280;63189;51.240;9.964;2023-05-29T13:20:17;98384.69;;;22.33;49.18
54910;BME280;63189;51.240;9.964;2023-05-29T13:22:47;98382.53;;;22.38;48.82
54910;BME280;63189;51.240;9.964;2023-05-29T13:25:17;98387.13;;;22.36;49.63